Capitol Logistics 429


KPWM
Portland International Jetport
Portland, Maine, US
KIAD
Washington Dulles International Airport
Dulles, Virginia, US

Activity Log

Date Flight Route Aircraft Duration
08/10/2019 CPX429 NUBLE3 BAF HYPER7 B752 1h 39m
12/04/2018 CPX529 NUBLE4 BAF HYPER7 B752 1h 35m
03/31/2018 CPX529 NUBLE3 BAF HYPER7 B752 1h 32m

Route Details

Aircraft Information
Primary: Boeing 737-800BCF
Backup: Not Available
Route Data
Distance: 429nm
Sched. Duration: 1h 41m
Avg. Duration: 1h 35m (-6m)
Times Flown: 3
Recm'd Route: NUBLE3 BAF HYPER7
Planned Altitude: 34,000ft
Origin Wx: KPWM 311251Z 04014G23KT 10SM SCT027 BKN100 01/M06 A3011 RMK AO2 SLP198 T00111056
Dest. Wx: KIAD 311252Z 33004KT 10SM OVC060 10/02 A3000 RMK AO2 SLP160 T01000017
Notes: LOBSTER KING

Financial History
Total Freight: 153,561lbs
Average Load: 51,187lbs/flt
Fuel Used: 37,312lbs
Avg. Fuel Used: 12,437lbs/flt
Fuel Expense: $24,511
Avg. Fuel Expense: $8,170
Avg. Fuel Cost: $0.65/lbs
Total Gross Income: $190,416
Pilot Pay: $287
Total Expenses: $21,759
Total Revenue: $143,035
Average Revenue: $63,471.89